Time;durP1;ratioP1;P1;durP2;ratioP2;P2;SDS_P1;SDS_P2;PMS_P1;PMS_P2;Temp;Humidity;BMP_temperature;BMP_pressure;BME280_temperature;BME280_humidity;BME280_pressure;Samples;Min_cycle;Max_cycle;Signal;HPM_P1;HPM_P2
2023/05/12 00:01:27;;;;;;;7.43;5.77;;;8.90;93.10;;;;;;10411435;28;20994;-87
2023/05/12 00:06:31;;;;;;;7.53;5.40;;;8.70;94.40;;;;;;10412476;28;20235;-86
2023/05/12 00:11:36;;;;;;;7.03;4.90;;;8.70;95.20;;;;;;10406379;28;20235;-87
2023/05/12 00:16:39;;;;;;;7.07;5.60;;;8.80;95.50;;;;;;10373885;28;20252;-86
2023/05/12 00:21:42;;;;;;;7.33;5.57;;;8.80;96.50;;;;;;10409998;28;20254;-86
2023/05/12 00:26:44;;;;;;;4.33;3.33;;;8.70;96.90;;;;;;10410475;28;20243;-86
2023/05/12 00:31:47;;;;;;;6.00;5.40;;;8.60;97.50;;;;;;10411434;28;20247;-86
2023/05/12 00:36:50;;;;;;;6.40;4.97;;;8.60;97.30;;;;;;10410778;28;20236;-86
2023/05/12 00:41:59;;;;;;;6.13;4.43;;;8.60;97.50;;;;;;10416423;28;20256;-86
2023/05/12 00:47:03;;;;;;;11.50;5.50;;;8.60;98.00;;;;;;10409358;28;20240;-86
2023/05/12 00:52:06;;;;;;;8.60;5.40;;;8.50;98.70;;;;;;10409643;28;20208;-86
2023/05/12 00:57:09;;;;;;;5.60;4.73;;;8.40;99.10;;;;;;10392324;28;20235;-86
2023/05/12 01:02:12;;;;;;;8.90;5.40;;;8.40;99.40;;;;;;10402596;28;20306;-86
2023/05/12 01:07:20;;;;;;;6.43;5.47;;;8.40;99.20;;;;;;10408601;28;20199;-86
2023/05/12 01:12:23;;;;;;;6.60;5.30;;;8.50;98.90;;;;;;10408298;28;20211;-86
2023/05/12 01:17:31;;;;;;;7.27;5.57;;;8.60;99.00;;;;;;10410598;28;20235;-86
2023/05/12 01:22:34;;;;;;;11.50;5.13;;;8.60;98.70;;;;;;10426129;28;20255;-86
2023/05/12 01:27:38;;;;;;;7.37;5.70;;;8.50;99.10;;;;;;10408755;28;20242;-86
2023/05/12 01:32:42;;;;;;;6.50;5.40;;;8.50;99.30;;;;;;10406250;28;20295;-86
2023/05/12 01:37:45;;;;;;;5.97;4.57;;;8.30;99.60;;;;;;10411127;28;20296;-86
2023/05/12 01:42:48;;;;;;;12.13;5.10;;;8.40;99.90;;;;;;10447995;28;20267;-86
2023/05/12 01:47:51;;;;;;;5.23;4.50;;;8.40;99.80;;;;;;10448141;28;20691;-86
2023/05/12 01:52:54;;;;;;;7.00;5.67;;;8.50;99.40;;;;;;10406180;28;20273;-86
2023/05/12 01:57:56;;;;;;;6.83;6.00;;;8.50;99.10;;;;;;10406969;28;20293;-86
2023/05/12 02:02:59;;;;;;;7.40;5.47;;;8.60;98.90;;;;;;10439257;28;20325;-86
2023/05/12 02:08:03;;;;;;;8.03;5.67;;;8.50;98.90;;;;;;10406369;28;20239;-86
2023/05/12 02:13:06;;;;;;;7.53;5.73;;;8.30;99.00;;;;;;10405885;28;20677;-86
2023/05/12 02:18:09;;;;;;;10.07;6.13;;;8.30;99.10;;;;;;10405764;28;20217;-86
2023/05/12 02:23:13;;;;;;;7.93;6.37;;;8.30;99.00;;;;;;10408250;28;20721;-86
2023/05/12 02:28:16;;;;;;;10.00;6.17;;;8.40;99.30;;;;;;10414317;28;20201;-86
2023/05/12 02:33:22;;;;;;;6.57;5.90;;;8.20;98.40;;;;;;10413302;28;20289;-86
2023/05/12 02:38:25;;;;;;;5.47;4.70;;;8.20;98.30;;;;;;10425742;28;20231;-86
2023/05/12 02:43:27;;;;;;;6.57;5.57;;;8.10;99.30;;;;;;10415061;28;20263;-86
2023/05/12 02:48:30;;;;;;;8.67;5.50;;;8.20;99.10;;;;;;10413033;28;20244;-86
2023/05/12 02:53:32;;;;;;;7.50;6.47;;;8.20;98.60;;;;;;10397080;28;20297;-86
2023/05/12 02:58:35;;;;;;;7.90;5.70;;;8.10;98.50;;;;;;10414785;28;20235;-86
2023/05/12 03:03:38;;;;;;;7.23;5.40;;;;;;;;;;10412785;28;20263;-86
2023/05/12 03:08:40;;;;;;;8.80;5.73;;;7.80;99.90;;;;;;10413885;28;20946;-86
2023/05/12 03:13:43;;;;;;;8.97;5.83;;;8.10;99.20;;;;;;10411838;28;20790;-86
2023/05/12 03:18:46;;;;;;;6.50;5.73;;;8.20;99.90;;;;;;10391332;28;20253;-86
2023/05/12 03:23:48;;;;;;;7.17;5.40;;;8.30;99.10;;;;;;10371629;28;20318;-86
2023/05/12 03:28:51;;;;;;;10.03;5.50;;;8.40;99.40;;;;;;10373302;28;20286;-86
2023/05/12 03:33:54;;;;;;;6.43;5.20;;;8.40;99.40;;;;;;10417935;28;20329;-86
2023/05/12 03:38:57;;;;;;;6.43;5.13;;;8.50;99.90;;;;;;10429351;28;20278;-86
2023/05/12 03:43:59;;;;;;;11.60;5.67;;;8.50;99.70;;;;;;10444015;28;20331;-86
2023/05/12 03:49:02;;;;;;;7.27;4.87;;;8.70;99.90;;;;;;10411557;28;20223;-87
2023/05/12 03:54:06;;;;;;;7.83;6.13;;;8.80;99.90;;;;;;10411051;28;20698;-86
2023/05/12 03:59:10;;;;;;;9.43;5.20;;;8.90;99.20;;;;;;10408842;28;20232;-86
2023/05/12 04:04:13;;;;;;;10.13;5.00;;;9.00;99.90;;;;;;10409237;28;20720;-86
2023/05/12 04:09:16;;;;;;;9.17;4.40;;;9.20;99.90;;;;;;10410861;28;20231;-86
2023/05/12 04:14:19;;;;;;;9.67;6.77;;;9.40;99.90;;;;;;10410786;28;20320;-86
2023/05/12 04:19:33;;;;;;;7.77;4.57;;;9.40;99.60;;;;;;10409635;28;20235;-85
2023/05/12 04:24:37;;;;;;;15.93;7.27;;;9.50;99.70;;;;;;10409023;28;20285;-88
2023/05/12 04:29:40;;;;;;;5.73;4.67;;;9.70;98.80;;;;;;10408765;28;20238;-86
2023/05/12 04:34:43;;;;;;;4.30;3.90;;;9.90;99.90;;;;;;10408494;28;20259;-86
2023/05/12 04:39:46;;;;;;;11.30;6.23;;;10.00;99.00;;;;;;10409129;28;20265;-85
2023/05/12 04:44:49;;;;;;;6.90;4.87;;;10.00;97.20;;;;;;10407794;28;20235;-85
2023/05/12 04:49:51;;;;;;;7.13;5.00;;;10.20;97.70;;;;;;10406447;28;20297;-86
2023/05/12 04:54:54;;;;;;;9.63;5.30;;;10.50;99.50;;;;;;10408672;28;20204;-86
2023/05/12 04:59:58;;;;;;;17.73;6.67;;;11.00;96.10;;;;;;10408322;28;20296;-86
2023/05/12 05:05:01;;;;;;;6.83;5.70;;;11.00;96.00;;;;;;10407023;28;20231;-86
2023/05/12 05:10:05;;;;;;;8.17;6.00;;;11.30;95.30;;;;;;10407023;28;20680;-86
2023/05/12 05:15:10;;;;;;;8.50;5.20;;;11.40;93.50;;;;;;10418614;28;20260;-86
2023/05/12 05:20:13;;;;;;;9.63;5.20;;;11.70;94.00;;;;;;10442102;28;20254;-86
2023/05/12 05:25:17;;;;;;;14.43;5.63;;;11.90;92.10;;;;;;10425354;28;20609;-86
2023/05/12 05:30:20;;;;;;;14.47;6.27;;;12.10;92.20;;;;;;10391647;28;20265;-86
2023/05/12 05:35:23;;;;;;;14.67;5.97;;;12.30;85.80;;;;;;10407239;28;20247;-87
2023/05/12 05:40:27;;;;;;;8.77;4.37;;;;;;;;;;10414699;28;20502;-88
2023/05/12 05:45:48;;;;;;;6.63;5.23;;;12.80;89.00;;;;;;10448611;28;20295;-87
2023/05/12 05:50:52;;;;;;;9.87;5.27;;;13.30;87.80;;;;;;10448701;28;20628;-87
2023/05/12 05:55:56;;;;;;;13.33;6.53;;;13.30;84.50;;;;;;10408011;28;20754;-85
2023/05/12 06:01:00;;;;;;;10.27;4.73;;;13.60;73.50;;;;;;10404755;28;20634;-85
2023/05/12 06:06:03;;;;;;;24.90;6.17;;;13.80;74.00;;;;;;10404523;28;20239;-85
2023/05/12 06:11:06;;;;;;;11.87;5.53;;;13.80;70.10;;;;;;10418992;28;20239;-84
2023/05/12 06:16:08;;;;;;;9.60;4.17;;;14.20;70.60;;;;;;10393565;28;20239;-88
2023/05/12 06:21:11;;;;;;;11.30;5.53;;;14.30;71.60;;;;;;10402685;28;20629;-86
2023/05/12 06:26:14;;;;;;;19.83;5.33;;;14.50;67.90;;;;;;10406581;28;20219;-87
2023/05/12 06:31:16;;;;;;;10.83;5.70;;;14.70;68.20;;;;;;10375384;28;20672;-87
2023/05/12 06:36:21;;;;;;;21.60;5.80;;;15.10;64.20;;;;;;10431606;28;20634;-87
2023/05/12 06:41:24;;;;;;;15.20;5.50;;;15.20;64.90;;;;;;10447661;28;20254;-88
2023/05/12 06:46:27;;;;;;;14.23;5.10;;;15.60;61.30;;;;;;10408585;28;20706;-87
2023/05/12 06:51:29;;;;;;;6.40;4.60;;;15.90;54.40;;;;;;10382907;28;20231;-88
2023/05/12 06:56:32;;;;;;;9.27;3.70;;;16.10;57.10;;;;;;10384133;28;20236;-85
2023/05/12 07:01:41;;;;;;;15.80;4.90;;;16.30;54.20;;;;;;10403478;28;20247;-85
2023/05/12 07:06:44;;;;;;;40.53;4.43;;;16.60;54.90;;;;;;10402894;28;20746;-87
2023/05/12 07:11:47;;;;;;;11.77;4.93;;;16.80;53.90;;;;;;10408039;28;20297;-86
2023/05/12 07:16:50;;;;;;;7.93;3.60;;;17.10;52.60;;;;;;10400900;28;20688;-83
2023/05/12 07:21:53;;;;;;;4.87;3.30;;;17.30;50.90;;;;;;10413558;28;20278;-83
2023/05/12 07:26:56;;;;;;;8.67;3.80;;;17.50;48.00;;;;;;10413913;28;20908;-83
2023/05/12 07:31:58;;;;;;;23.83;4.97;;;17.80;48.70;;;;;;10445385;28;20687;-84
2023/05/12 07:37:01;;;;;;;17.83;4.10;;;17.80;41.00;;;;;;10432464;28;20317;-83
2023/05/12 07:42:04;;;;;;;6.90;3.37;;;;;;;;;;10412610;28;20266;-84
2023/05/12 07:47:06;;;;;;;6.13;3.10;;;18.20;36.90;;;;;;10411752;28;20239;-82
2023/05/12 07:52:09;;;;;;;5.20;3.03;;;18.30;37.00;;;;;;10411786;28;20262;-85
2023/05/12 07:57:12;;;;;;;14.10;4.57;;;18.50;36.70;;;;;;10417920;28;20293;-85
2023/05/12 08:02:16;;;;;;;4.57;2.97;;;18.70;39.20;;;;;;10409439;28;20255;-84
2023/05/12 08:07:18;;;;;;;9.63;4.47;;;18.90;36.10;;;;;;10409878;28;20254;-83
2023/05/12 08:12:23;;;;;;;4.87;2.90;;;18.90;30.60;;;;;;10411021;28;20255;-84
2023/05/12 08:17:26;;;;;;;5.70;3.27;;;19.00;33.80;;;;;;10410436;28;20262;-83
2023/05/12 08:22:30;;;;;;;8.53;3.40;;;19.10;34.70;;;;;;10407868;28;20360;-84
2023/05/12 08:27:33;;;;;;;4.53;3.63;;;19.20;30.20;;;;;;10408864;28;20703;-87
2023/05/12 08:32:36;;;;;;;8.43;3.00;;;19.30;31.80;;;;;;10408718;28;20313;-85
2023/05/12 08:37:39;;;;;;;4.07;2.97;;;19.30;28.10;;;;;;10409903;28;20235;-85
2023/05/12 08:42:54;;;;;;;5.77;3.03;;;19.30;24.90;;;;;;10408109;28;20259;-83
2023/05/12 08:47:58;;;;;;;4.67;2.47;;;19.30;24.30;;;;;;10378145;28;20285;-82
2023/05/12 08:53:04;;;;;;;6.43;2.30;;;19.40;31.70;;;;;;10393582;28;20240;-82
2023/05/12 08:58:07;;;;;;;6.17;2.90;;;19.40;26.10;;;;;;10406808;28;20313;-81
2023/05/12 09:03:13;;;;;;;8.17;3.00;;;19.40;29.20;;;;;;10407727;28;20392;-82
2023/05/12 09:08:16;;;;;;;4.63;2.63;;;19.40;22.10;;;;;;10406985;28;20289;-82
2023/05/12 09:13:49;;;;;;;5.23;2.60;;;19.40;23.70;;;;;;10407352;28;20265;-81
2023/05/12 09:18:57;;;;;;;4.75;2.70;;;19.50;21.30;;;;;;10408613;28;20239;-82
2023/05/12 09:24:05;;;;;;;5.87;3.20;;;19.60;29.40;;;;;;10407696;28;20255;-82
2023/05/12 09:29:08;;;;;;;5.30;2.87;;;19.60;24.30;;;;;;10430808;28;20230;-81
2023/05/12 09:34:15;;;;;;;6.13;3.03;;;19.70;22.70;;;;;;10410133;28;20262;-81
2023/05/12 09:39:17;;;;;;;3.27;2.77;;;19.70;22.30;;;;;;10405914;28;20682;-82
2023/05/12 09:44:20;;;;;;;3.30;2.73;;;19.80;22.70;;;;;;10407247;28;20741;-83
2023/05/12 09:49:25;;;;;;;3.60;2.90;;;19.80;24.90;;;;;;10398144;28;20281;-82
2023/05/12 09:54:31;;;;;;;2.57;1.83;;;19.80;23.30;;;;;;10406528;28;20274;-81
2023/05/12 09:59:35;;;;;;;5.70;2.17;;;19.80;23.10;;;;;;10420201;28;20234;-82
2023/05/12 10:04:51;;;;;;;3.47;2.20;;;19.80;21.30;;;;;;10448485;28;20254;-81
2023/05/12 10:09:58;;;;;;;5.33;2.57;;;19.90;20.50;;;;;;10448297;28;20363;-81
2023/05/12 10:15:02;;;;;;;4.23;2.60;;;19.90;24.00;;;;;;10424558;28;20231;-81
2023/05/12 10:20:06;;;;;;;4.05;2.47;;;20.00;23.50;;;;;;10406860;28;20293;-82
2023/05/12 10:25:09;;;;;;;4.38;2.92;;;20.00;23.80;;;;;;10405935;28;20643;-81
2023/05/12 10:30:12;;;;;;;5.38;3.47;;;19.80;19.50;;;;;;10401986;28;20918;-82
2023/05/12 10:35:15;;;;;;;3.67;2.85;;;20.00;26.10;;;;;;10406106;28;20236;-84
2023/05/12 10:40:24;;;;;;;2.27;1.93;;;20.00;23.70;;;;;;10405362;28;20700;-84
2023/05/12 10:45:27;;;;;;;5.80;2.77;;;19.90;23.70;;;;;;10410297;28;20646;-84
2023/05/12 10:50:29;;;;;;;8.65;3.28;;;19.80;21.70;;;;;;10413852;28;20227;-83
2023/05/12 10:55:44;;;;;;;4.00;3.03;;;19.90;26.40;;;;;;10419688;28;20242;-84
2023/05/12 11:00:50;;;;;;;11.87;3.63;;;19.90;24.80;;;;;;10426490;28;20349;-83
2023/05/12 11:06:01;;;;;;;3.30;2.70;;;19.90;24.90;;;;;;10413378;28;20310;-88
2023/05/12 11:11:04;;;;;;;8.07;3.10;;;20.00;25.70;;;;;;10415010;28;20239;-85
2023/05/12 11:16:11;;;;;;;6.80;2.73;;;20.10;22.30;;;;;;10423294;28;20235;-84
2023/05/12 11:21:14;;;;;;;3.33;2.57;;;20.00;19.70;;;;;;10400805;28;20239;-83
2023/05/12 11:26:18;;;;;;;22.00;3.77;;;20.10;24.50;;;;;;10412432;28;20271;-81
2023/05/12 11:31:21;;;;;;;8.43;2.60;;;20.00;22.60;;;;;;10411109;28;20232;-81
2023/05/12 11:36:24;;;;;;;9.10;3.17;;;20.00;19.30;;;;;;10411789;28;20232;-81
2023/05/12 11:41:27;;;;;;;5.30;2.60;;;20.10;20.40;;;;;;10410502;28;20305;-81
2023/05/12 11:46:29;;;;;;;5.03;2.53;;;20.10;23.30;;;;;;10411731;28;20293;-83
2023/05/12 11:51:32;;;;;;;4.50;2.50;;;20.20;23.80;;;;;;10408095;28;20224;-85
2023/05/12 11:56:35;;;;;;;5.97;2.77;;;20.20;22.30;;;;;;10410086;28;20219;-83
2023/05/12 12:01:45;;;;;;;50.33;5.65;;;20.20;19.90;;;;;;10411189;28;20235;-84
2023/05/12 12:06:47;;;;;;;4.90;2.22;;;20.20;20.00;;;;;;10408105;28;20297;-86
2023/05/12 12:11:50;;;;;;;6.33;2.67;;;20.20;23.40;;;;;;10415884;28;20603;-84
2023/05/12 12:16:53;;;;;;;3.87;2.30;;;20.20;18.50;;;;;;10450764;28;20707;-83
2023/05/12 12:21:56;;;;;;;7.93;2.07;;;20.30;20.50;;;;;;10451473;28;20304;-85
2023/05/12 12:26:59;;;;;;;6.63;2.90;;;20.30;20.30;;;;;;10427084;28;20239;-83
2023/05/12 12:32:01;;;;;;;3.33;2.70;;;20.30;22.10;;;;;;10408941;28;20261;-83
2023/05/12 12:37:04;;;;;;;5.83;3.30;;;20.30;21.60;;;;;;10410219;28;20649;-84
2023/05/12 12:42:07;;;;;;;5.73;2.70;;;20.30;22.00;;;;;;10440958;28;20267;-83
2023/05/12 12:47:09;;;;;;;5.27;2.70;;;20.20;21.40;;;;;;10440545;28;20269;-83
2023/05/12 12:52:12;;;;;;;5.93;2.60;;;20.20;22.10;;;;;;10428829;28;20231;-84
2023/05/12 12:57:15;;;;;;;4.63;3.00;;;20.20;21.90;;;;;;10432160;28;20239;-84
2023/05/12 13:02:20;;;;;;;5.78;3.03;;;20.20;22.10;;;;;;10409277;28;20259;-82
2023/05/12 13:07:22;;;;;;;26.20;4.88;;;20.30;22.90;;;;;;10406904;28;20628;-83
2023/05/12 13:12:25;;;;;;;4.20;2.97;;;20.40;21.70;;;;;;10408241;28;20266;-83
2023/05/12 13:17:28;;;;;;;7.83;3.27;;;20.40;19.30;;;;;;10446119;28;20261;-84
2023/05/12 13:22:30;;;;;;;2.50;2.30;;;20.30;22.10;;;;;;10448439;28;20266;-83
2023/05/12 13:27:37;;;;;;;6.10;3.47;;;20.20;23.50;;;;;;10447629;28;20276;-83
2023/05/12 13:32:40;;;;;;;16.73;4.30;;;20.30;19.50;;;;;;10434558;28;20239;-82
2023/05/12 13:37:42;;;;;;;2.73;2.30;;;20.20;19.50;;;;;;10407518;28;20243;-83
2023/05/12 13:42:45;;;;;;;4.63;2.85;;;20.30;23.10;;;;;;10406278;28;20325;-83
2023/05/12 13:47:47;;;;;;;4.30;2.35;;;20.40;19.70;;;;;;10406052;28;20247;-84
2023/05/12 13:52:50;;;;;;;13.68;3.00;;;20.30;20.40;;;;;;10406294;28;20239;-85
2023/05/12 13:57:54;;;;;;;4.72;2.33;;;20.40;19.60;;;;;;10407261;28;20579;-87
2023/05/12 14:02:59;;;;;;;2.88;2.22;;;20.20;19.70;;;;;;10405880;28;20697;-86
2023/05/12 14:08:02;;;;;;;8.68;2.50;;;20.40;17.60;;;;;;10405743;28;20223;-83
2023/05/12 14:13:05;;;;;;;7.60;2.78;;;20.50;18.50;;;;;;10406351;28;20258;-85
2023/05/12 14:18:09;;;;;;;15.47;3.20;;;20.50;18.40;;;;;;10417473;28;20238;-86
2023/05/12 14:23:12;;;;;;;6.10;2.58;;;20.50;17.90;;;;;;10411891;28;20273;-87
2023/05/12 14:28:14;;;;;;;8.32;2.85;;;20.60;15.80;;;;;;10405967;28;20666;-86
2023/05/12 14:33:17;;;;;;;7.43;3.35;;;20.70;16.80;;;;;;10405789;28;20623;-86
2023/05/12 14:38:20;;;;;;;8.35;2.70;;;20.70;18.10;;;;;;10370012;28;20594;-87
2023/05/12 14:43:22;;;;;;;3.70;2.35;;;20.70;17.50;;;;;;10405152;28;20266;-85
2023/05/12 14:48:27;;;;;;;5.03;2.20;;;20.70;18.30;;;;;;10406001;28;20837;-85
2023/05/12 14:53:30;;;;;;;12.77;3.35;;;20.70;16.70;;;;;;10406431;28;20234;-85
2023/05/12 14:58:32;;;;;;;5.03;2.70;;;20.70;17.40;;;;;;10405796;28;20281;-86
2023/05/12 15:03:35;;;;;;;7.35;2.70;;;20.60;18.80;;;;;;10405337;28;20719;-85
2023/05/12 15:08:37;;;;;;;4.95;2.17;;;20.50;16.80;;;;;;10404365;28;20262;-87
2023/05/12 15:13:40;;;;;;;5.15;2.80;;;20.40;18.10;;;;;;9726361;28;10001131;-86
2023/05/12 15:18:43;;;;;;;1.90;1.77;;;20.30;19.20;;;;;;10387924;28;20301;-85
2023/05/12 15:23:45;;;;;;;6.60;2.38;;;20.40;19.50;;;;;;10380537;28;20251;-86
2023/05/12 15:28:48;;;;;;;7.72;3.15;;;20.30;19.60;;;;;;10397346;28;20632;-86
2023/05/12 15:33:50;;;;;;;6.72;2.85;;;20.10;17.30;;;;;;10401306;28;20282;-84
2023/05/12 15:38:53;;;;;;;7.03;2.92;;;20.10;18.20;;;;;;10410354;28;20774;-85
2023/05/12 15:43:55;;;;;;;2.65;2.45;;;20.10;20.40;;;;;;10412294;28;20267;-86
2023/05/12 15:48:58;;;;;;;5.70;2.60;;;20.10;20.90;;;;;;10411517;28;20928;-86
2023/05/12 15:54:01;;;;;;;5.30;2.50;;;20.10;19.30;;;;;;10411375;28;20246;-86
2023/05/12 15:59:04;;;;;;;17.85;3.10;;;20.10;19.50;;;;;;10411947;28;20262;-85
2023/05/12 16:04:07;;;;;;;41.50;10.38;;;20.10;17.90;;;;;;10412655;28;20259;-85
2023/05/12 16:09:10;;;;;;;62.33;11.90;;;20.10;18.70;;;;;;10425384;28;20211;-86
2023/05/12 16:14:13;;;;;;;85.28;19.52;;;20.10;17.90;;;;;;10412697;28;20281;-88
2023/05/12 16:19:16;;;;;;;19.33;5.90;;;20.10;16.90;;;;;;10410753;28;20895;-85
2023/05/12 16:24:18;;;;;;;159.02;35.03;;;20.10;17.70;;;;;;10413750;28;20308;-86
2023/05/12 16:29:21;;;;;;;52.58;12.10;;;20.20;16.50;;;;;;10418283;28;20224;-86
2023/05/12 16:34:24;;;;;;;19.20;4.20;;;20.20;16.40;;;;;;10411884;28;20239;-86
2023/05/12 16:39:27;;;;;;;8.25;3.55;;;20.20;15.50;;;;;;10394012;28;20227;-86
2023/05/12 16:44:30;;;;;;;16.58;3.60;;;20.20;15.40;;;;;;10414035;28;20299;-87
2023/05/12 16:49:32;;;;;;;18.77;5.18;;;20.20;15.70;;;;;;10441854;28;20223;-87
2023/05/12 16:54:35;;;;;;;11.02;4.68;;;20.10;15.70;;;;;;10409615;28;20235;-87
2023/05/12 16:59:38;;;;;;;14.75;4.78;;;20.10;14.20;;;;;;10410054;28;20239;-87
2023/05/12 17:04:41;;;;;;;11.30;3.50;;;19.90;13.60;;;;;;10430447;28;20258;-87
2023/05/12 17:09:43;;;;;;;6.40;3.90;;;19.80;14.10;;;;;;10419457;28;20228;-86
2023/05/12 17:14:46;;;;;;;12.23;5.53;;;19.70;13.70;;;;;;10409242;28;20235;-87
2023/05/12 17:20:08;;;;;;;9.70;3.65;;;19.60;14.60;;;;;;10408580;28;20219;-86
2023/05/12 17:25:11;;;;;;;12.13;4.55;;;19.50;14.40;;;;;;10438608;28;20282;-86
2023/05/12 17:30:15;;;;;;;9.05;3.63;;;19.30;15.20;;;;;;10410073;28;20234;-88
2023/05/12 17:35:17;;;;;;;8.52;4.07;;;19.10;15.50;;;;;;10441293;28;20728;-88
2023/05/12 17:40:21;;;;;;;6.93;3.20;;;19.00;15.80;;;;;;10408895;28;20286;-89
2023/05/12 17:45:24;;;;;;;4.50;3.85;;;18.80;14.90;;;;;;10409183;28;20254;-88
2023/05/12 17:50:26;;;;;;;9.00;4.03;;;18.70;15.60;;;;;;10406759;28;20223;-88
2023/05/12 17:55:29;;;;;;;10.30;4.25;;;18.50;16.10;;;;;;10414591;28;20620;-88
2023/05/12 18:00:31;;;;;;;8.13;3.90;;;18.40;16.40;;;;;;10448703;28;20254;-87
2023/05/12 18:05:34;;;;;;;7.80;3.95;;;18.20;16.20;;;;;;10430177;28;20320;-87
2023/05/12 18:10:40;;;;;;;8.38;4.13;;;18.00;17.00;;;;;;10408894;28;20234;-86
2023/05/12 18:15:42;;;;;;;10.10;4.25;;;17.80;16.50;;;;;;10406655;28;20207;-87
2023/05/12 18:20:45;;;;;;;7.77;4.23;;;17.50;16.40;;;;;;10406609;28;20231;-87
2023/05/12 18:25:47;;;;;;;16.43;7.27;;;17.20;17.10;;;;;;10414431;28;20304;-85
2023/05/12 18:30:50;;;;;;;8.17;4.97;;;16.80;18.40;;;;;;10409450;28;20289;-85
2023/05/12 18:35:53;;;;;;;8.93;5.13;;;16.60;18.40;;;;;;10406853;28;20265;-84
2023/05/12 18:40:56;;;;;;;29.37;6.23;;;16.30;18.40;;;;;;10407198;28;20263;-84
2023/05/12 18:45:58;;;;;;;11.40;5.73;;;16.00;19.10;;;;;;10407425;28;20381;-84
2023/05/12 18:51:01;;;;;;;13.03;4.63;;;15.70;20.30;;;;;;10407842;28;20262;-84
2023/05/12 18:56:03;;;;;;;17.13;4.63;;;15.40;20.50;;;;;;10407845;28;20637;-84
2023/05/12 19:01:06;;;;;;;18.20;5.00;;;15.20;21.30;;;;;;10406119;28;20774;-84
2023/05/12 19:06:09;;;;;;;10.20;4.90;;;14.70;22.30;;;;;;10411038;28;20247;-84
2023/05/12 19:11:11;;;;;;;17.27;5.13;;;14.50;23.10;;;;;;10414193;28;20231;-84
2023/05/12 19:16:14;;;;;;;7.53;5.33;;;14.40;24.10;;;;;;10415175;28;20223;-84
2023/05/12 19:21:17;;;;;;;11.73;6.57;;;14.30;24.40;;;;;;10413155;28;20282;-86
2023/05/12 19:26:19;;;;;;;7.07;4.53;;;14.20;26.60;;;;;;10419177;28;20255;-85
2023/05/12 19:31:22;;;;;;;8.83;4.80;;;14.30;24.50;;;;;;10384240;28;20239;-84
2023/05/12 19:36:26;;;;;;;11.67;4.57;;;14.10;24.50;;;;;;10454007;28;20285;-85
2023/05/12 19:41:28;;;;;;;6.67;4.63;;;14.00;25.00;;;;;;9714443;28;10000648;-85
2023/05/12 19:46:31;;;;;;;6.32;4.22;;;13.90;25.50;;;;;;10369117;28;20657;-84
2023/05/12 19:51:34;;;;;;;8.53;4.53;;;13.70;25.80;;;;;;10442410;28;20231;-84
2023/05/12 19:56:36;;;;;;;8.73;4.97;;;13.20;27.60;;;;;;10407237;28;20297;-85
2023/05/12 20:01:40;;;;;;;6.60;4.30;;;13.00;28.90;;;;;;10410246;28;20277;-85
2023/05/12 20:06:43;;;;;;;7.33;4.20;;;12.80;30.00;;;;;;10408377;28;20259;-85
2023/05/12 20:11:45;;;;;;;6.27;3.93;;;12.50;30.70;;;;;;10411881;28;20285;-85
2023/05/12 20:16:48;;;;;;;11.57;5.03;;;12.30;32.70;;;;;;10424043;28;20284;-86
2023/05/12 20:21:50;;;;;;;8.57;5.07;;;12.10;33.20;;;;;;10409001;28;20250;-85
2023/05/12 20:26:53;;;;;;;15.87;4.50;;;11.90;34.70;;;;;;10410726;28;20327;-84
2023/05/12 20:31:56;;;;;;;7.43;4.70;;;11.80;37.60;;;;;;10413059;28;20234;-84
2023/05/12 20:36:59;;;;;;;10.93;4.73;;;11.60;38.00;;;;;;10449483;28;20764;-84
2023/05/12 20:42:02;;;;;;;9.97;5.60;;;11.40;40.20;;;;;;10450182;28;20734;-85
2023/05/12 20:47:05;;;;;;;13.77;5.50;;;11.30;41.70;;;;;;10443439;28;20254;-84
2023/05/12 20:52:08;;;;;;;12.30;5.70;;;11.10;44.40;;;;;;10448122;28;20701;-84
2023/05/12 20:57:11;;;;;;;13.63;5.80;;;10.90;49.00;;;;;;10428144;28;20227;-84
2023/05/12 21:02:14;;;;;;;11.20;6.00;;;10.60;51.70;;;;;;10441605;28;20682;-84
2023/05/12 21:07:20;;;;;;;8.87;5.83;;;10.50;55.50;;;;;;10450389;28;20262;-85
2023/05/12 21:12:23;;;;;;;9.73;5.17;;;10.30;57.00;;;;;;10449423;28;20280;-85
2023/05/12 21:17:25;;;;;;;7.47;5.13;;;10.30;60.10;;;;;;10408098;28;20683;-85
2023/05/12 21:22:28;;;;;;;10.23;4.03;;;10.00;65.60;;;;;;10416835;28;20234;-85
2023/05/12 21:27:30;;;;;;;6.60;5.50;;;9.80;70.30;;;;;;10444709;28;20667;-85
2023/05/12 21:32:33;;;;;;;7.53;4.60;;;9.60;77.60;;;;;;10436670;28;20246;-85
2023/05/12 21:37:36;;;;;;;7.57;5.00;;;9.40;84.20;;;;;;10447884;28;20235;-84
2023/05/12 21:42:39;;;;;;;9.83;6.10;;;9.10;90.80;;;;;;10443701;28;20305;-85
2023/05/12 21:47:41;;;;;;;26.47;6.80;;;9.00;93.20;;;;;;10405305;28;20325;-85
2023/05/12 21:52:44;;;;;;;11.70;6.17;;;8.90;96.10;;;;;;10434762;28;20223;-85
2023/05/12 21:57:46;;;;;;;16.53;7.10;;;8.60;96.10;;;;;;10427830;28;20239;-85
2023/05/12 22:02:49;;;;;;;11.03;5.67;;;8.50;96.90;;;;;;10406666;28;20625;-84
2023/05/12 22:07:52;;;;;;;13.23;6.63;;;8.40;96.70;;;;;;10405437;28;20250;-85
2023/05/12 22:12:55;;;;;;;12.83;6.50;;;8.40;96.20;;;;;;10416323;28;20279;-85
2023/05/12 22:17:57;;;;;;;8.73;6.27;;;8.40;99.70;;;;;;10425910;28;20234;-86
2023/05/12 22:23:00;;;;;;;11.60;6.40;;;8.40;99.90;;;;;;10407938;28;20235;-86
2023/05/12 22:28:03;;;;;;;8.40;5.87;;;8.20;99.90;;;;;;10407528;28;20309;-86
2023/05/12 22:33:08;;;;;;;11.97;5.73;;;8.20;99.90;;;;;;10405952;28;20232;-86
2023/05/12 22:38:11;;;;;;;11.97;6.93;;;8.10;99.90;;;;;;10407546;28;20257;-86
2023/05/12 22:43:14;;;;;;;11.03;6.27;;;7.80;99.90;;;;;;10414855;28;21120;-86
2023/05/12 22:48:20;;;;;;;8.87;6.17;;;7.60;99.90;;;;;;10415090;28;20281;-85
2023/05/12 22:53:22;;;;;;;12.97;6.10;;;7.50;99.90;;;;;;10415904;28;20297;-86
2023/05/12 22:58:24;;;;;;;13.40;6.67;;;7.10;99.90;;;;;;10416316;28;20231;-86
2023/05/12 23:03:27;;;;;;;8.47;6.57;;;7.20;99.90;;;;;;10414455;28;20716;-86
2023/05/12 23:08:30;;;;;;;9.57;6.77;;;7.20;99.90;;;;;;10447110;28;20313;-85
2023/05/12 23:13:32;;;;;;;12.13;7.67;;;7.10;99.90;;;;;;10414251;28;20242;-86
2023/05/12 23:18:35;;;;;;;10.03;6.57;;;7.00;99.90;;;;;;10415147;28;20585;-86
2023/05/12 23:23:38;;;;;;;11.87;6.60;;;7.00;99.90;;;;;;10414843;28;20235;-85
2023/05/12 23:28:40;;;;;;;13.90;7.30;;;7.10;99.90;;;;;;10413595;28;20259;-85
2023/05/12 23:33:43;;;;;;;8.03;6.57;;;7.20;99.90;;;;;;10414156;28;20615;-86
2023/05/12 23:38:49;;;;;;;9.47;6.43;;;7.30;99.90;;;;;;10418564;28;20627;-85
2023/05/12 23:43:52;;;;;;;10.20;6.87;;;7.40;99.90;;;;;;10433177;28;20262;-86
2023/05/12 23:48:55;;;;;;;10.87;6.20;;;7.50;99.90;;;;;;10411976;28;20717;-86
2023/05/12 23:53:57;;;;;;;8.27;6.30;;;7.50;99.90;;;;;;10441504;28;20234;-86
2023/05/12 23:59:00;;;;;;;8.20;6.53;;;7.50;99.90;;;;;;10436601;28;20239;-85
